createdAt,value
2024-04-17T00:00:25.648Z,0.00
2024-04-17T00:01:25.674Z,0.00
2024-04-17T00:02:25.608Z,0.00
2024-04-17T00:03:25.739Z,0.00
2024-04-17T00:04:25.693Z,0.00
2024-04-17T00:05:25.614Z,0.00
2024-04-17T00:06:25.572Z,0.00
2024-04-17T00:07:25.607Z,0.00
2024-04-17T00:08:25.586Z,0.00
2024-04-17T00:09:25.547Z,0.00
2024-04-17T00:10:25.552Z,0.00
2024-04-17T00:11:25.611Z,0.00
2024-04-17T00:12:25.525Z,0.00
2024-04-17T00:13:25.521Z,0.00
2024-04-17T00:14:25.486Z,0.00
2024-04-17T00:15:25.480Z,0.00
2024-04-17T00:16:25.495Z,0.00
2024-04-17T00:17:25.488Z,0.00
2024-04-17T00:18:25.478Z,0.00
2024-04-17T00:19:25.474Z,0.00
2024-04-17T00:20:25.453Z,0.00
2024-04-17T00:21:25.433Z,0.00
2024-04-17T00:22:25.467Z,0.00
2024-04-17T00:23:25.401Z,0.00
2024-04-17T00:24:25.387Z,0.00
2024-04-17T00:25:25.397Z,0.00
2024-04-17T00:26:25.381Z,0.00
2024-04-17T00:27:25.353Z,0.00
2024-04-17T00:28:25.358Z,0.00
2024-04-17T00:29:25.333Z,0.00
2024-04-17T00:30:25.322Z,0.00
2024-04-17T00:31:25.337Z,0.00
2024-04-17T00:32:25.324Z,0.00
2024-04-17T00:33:25.362Z,0.00
2024-04-17T00:34:25.298Z,0.00
2024-04-17T00:35:25.280Z,0.00
2024-04-17T00:36:25.276Z,0.00
2024-04-17T00:37:25.276Z,0.00
2024-04-17T00:38:25.246Z,0.00
2024-04-17T00:39:25.231Z,0.00
2024-04-17T00:40:25.287Z,0.00
2024-04-17T00:41:25.217Z,0.00
2024-04-17T00:42:25.201Z,0.00
2024-04-17T00:43:25.222Z,0.00
2024-04-17T00:44:25.182Z,0.00
2024-04-17T00:45:25.198Z,0.00
2024-04-17T00:46:25.164Z,0.00
2024-04-17T00:47:25.188Z,0.00
2024-04-17T00:48:25.153Z,0.00
2024-04-17T00:49:25.185Z,0.00
2024-04-17T00:50:25.137Z,0.00
2024-04-17T00:51:25.102Z,0.00
2024-04-17T00:52:25.139Z,0.00
2024-04-17T00:53:25.090Z,0.00
2024-04-17T00:54:25.096Z,0.00
2024-04-17T00:55:25.059Z,0.00
2024-04-17T00:56:25.065Z,0.00
2024-04-17T00:57:25.050Z,0.00
2024-04-17T00:58:25.055Z,0.00
2024-04-17T00:59:25.047Z,0.00
2024-04-17T01:00:25.017Z,0.00
2024-04-17T01:01:25.021Z,0.00
2024-04-17T01:02:25.004Z,0.00
2024-04-17T01:03:25.039Z,0.00
2024-04-17T01:04:25.027Z,0.00
2024-04-17T01:05:24.981Z,0.00
2024-04-17T01:06:24.976Z,0.00
2024-04-17T01:07:24.970Z,0.00
2024-04-17T01:08:24.964Z,0.00
2024-04-17T01:09:24.941Z,0.00
2024-04-17T01:10:24.940Z,0.00
2024-04-17T01:11:24.903Z,0.00
2024-04-17T01:12:24.903Z,0.00
2024-04-17T01:13:24.893Z,0.00
2024-04-17T01:14:24.871Z,0.00
2024-04-17T01:15:24.860Z,0.00
2024-04-17T01:16:24.880Z,0.00
2024-04-17T01:17:24.910Z,0.00
2024-04-17T01:18:24.896Z,0.00
2024-04-17T01:19:24.858Z,0.00
2024-04-17T01:20:24.819Z,0.00
2024-04-17T01:21:24.797Z,0.00
2024-04-17T01:22:24.824Z,0.00
2024-04-17T01:23:24.784Z,0.00
2024-04-17T01:24:24.777Z,0.00
2024-04-17T01:25:24.835Z,0.00
2024-04-17T01:26:24.750Z,0.00
2024-04-17T01:27:24.754Z,0.00
2024-04-17T01:28:24.765Z,0.00
2024-04-17T01:29:24.717Z,0.00
2024-04-17T01:30:24.714Z,0.00
2024-04-17T01:31:25.529Z,0.00
2024-04-17T01:32:24.751Z,0.00
2024-04-17T01:33:24.719Z,0.00
2024-04-17T01:34:24.687Z,0.00
2024-04-17T01:35:24.650Z,0.00
2024-04-17T01:36:24.672Z,0.00
2024-04-17T01:37:24.708Z,0.00
2024-04-17T01:38:24.641Z,0.00
2024-04-17T01:39:24.609Z,0.00
2024-04-17T01:40:24.637Z,0.00
2024-04-17T01:41:24.613Z,0.00
2024-04-17T01:42:24.587Z,0.00
2024-04-17T01:43:24.587Z,0.00
2024-04-17T01:44:29.871Z,0.00
2024-04-17T01:45:24.590Z,0.00
2024-04-17T01:46:24.643Z,0.00
2024-04-17T01:47:24.594Z,0.00
2024-04-17T01:48:24.567Z,0.00
2024-04-17T01:49:24.566Z,0.00
2024-04-17T01:50:24.565Z,0.00
2024-04-17T01:51:24.505Z,0.00
2024-04-17T01:52:24.515Z,0.00
2024-04-17T01:53:24.471Z,0.00
2024-04-17T01:54:24.463Z,0.00
2024-04-17T01:55:24.537Z,0.00
2024-04-17T01:56:24.447Z,0.00
2024-04-17T01:57:24.427Z,0.00
2024-04-17T01:58:24.460Z,0.00
2024-04-17T01:59:24.433Z,0.00
2024-04-17T02:00:24.415Z,0.00
2024-04-17T02:01:24.458Z,0.00
2024-04-17T02:02:24.384Z,0.00
2024-04-17T02:03:24.404Z,0.00
2024-04-17T02:04:24.407Z,0.00
2024-04-17T02:05:24.345Z,0.00
2024-04-17T02:06:24.333Z,0.00
2024-04-17T02:07:24.371Z,0.00
2024-04-17T02:08:24.334Z,0.00
2024-04-17T02:09:24.354Z,0.00
2024-04-17T02:10:24.319Z,0.00
2024-04-17T02:11:24.310Z,0.00
2024-04-17T02:12:24.277Z,0.00
2024-04-17T02:13:24.303Z,0.00
2024-04-17T02:14:24.266Z,0.00
2024-04-17T02:15:24.252Z,0.00
2024-04-17T02:16:24.304Z,0.00
2024-04-17T02:17:24.363Z,0.00
2024-04-17T02:18:24.294Z,0.00
2024-04-17T02:19:24.217Z,0.00
2024-04-17T02:20:24.196Z,0.00
2024-04-17T02:21:24.189Z,0.00
2024-04-17T02:22:24.192Z,0.00
2024-04-17T02:23:24.190Z,0.00
2024-04-17T02:24:24.157Z,0.00
2024-04-17T02:25:24.160Z,0.00
2024-04-17T02:26:24.131Z,0.00
2024-04-17T02:27:24.150Z,0.00
2024-04-17T02:28:24.139Z,0.00
2024-04-17T02:29:24.118Z,0.00
2024-04-17T02:30:24.108Z,0.00
2024-04-17T02:31:24.126Z,0.00
2024-04-17T02:32:24.123Z,0.00
2024-04-17T02:33:24.158Z,0.00
2024-04-17T02:34:24.080Z,0.00
2024-04-17T02:35:24.047Z,0.00
2024-04-17T02:36:24.037Z,0.00
2024-04-17T02:37:24.054Z,0.00
2024-04-17T02:38:24.004Z,0.00
2024-04-17T02:39:23.998Z,0.00
2024-04-17T02:40:24.053Z,0.00
2024-04-17T02:41:23.999Z,0.00
2024-04-17T02:42:23.982Z,0.00
2024-04-17T02:43:24.007Z,0.00
2024-04-17T02:44:23.948Z,0.00
2024-04-17T02:45:23.948Z,0.00
2024-04-17T02:46:23.986Z,0.00
2024-04-17T02:47:23.996Z,0.00
2024-04-17T02:48:23.996Z,0.00
2024-04-17T02:49:23.941Z,0.00
2024-04-17T02:50:23.890Z,0.00
2024-04-17T02:51:23.896Z,0.00
2024-04-17T02:52:23.868Z,0.00
2024-04-17T02:53:23.863Z,0.00
2024-04-17T02:54:23.844Z,0.00
2024-04-17T02:55:23.859Z,0.00
2024-04-17T02:56:23.838Z,0.00
2024-04-17T02:57:23.815Z,0.00
2024-04-17T02:58:23.820Z,0.00
2024-04-17T02:59:23.793Z,0.00
2024-04-17T03:00:23.810Z,0.00
2024-04-17T03:01:23.805Z,0.00
2024-04-17T03:02:23.777Z,0.00
2024-04-17T03:03:23.776Z,0.00
2024-04-17T03:04:23.921Z,0.00
2024-04-17T03:05:23.831Z,0.00
2024-04-17T03:06:23.728Z,0.00
2024-04-17T03:07:23.742Z,0.00
2024-04-17T03:08:23.707Z,0.00
2024-04-17T03:09:23.724Z,0.00
2024-04-17T03:10:23.710Z,0.00
2024-04-17T03:11:23.704Z,0.00
2024-04-17T03:12:23.655Z,0.00
2024-04-17T03:13:23.675Z,0.00
2024-04-17T03:14:23.660Z,0.00
2024-04-17T03:15:23.666Z,0.00
2024-04-17T03:16:23.670Z,0.00
2024-04-17T03:17:23.684Z,0.00
2024-04-17T03:18:23.614Z,0.00
2024-04-17T03:19:23.622Z,0.00
2024-04-17T03:20:23.610Z,0.00
2024-04-17T03:21:23.609Z,0.00
2024-04-17T03:22:23.660Z,0.00
2024-04-17T03:23:23.633Z,0.00
2024-04-17T03:24:23.568Z,0.00
2024-04-17T03:25:23.601Z,0.00
2024-04-17T03:26:23.516Z,0.00
2024-04-17T03:27:23.510Z,0.00
2024-04-17T03:28:23.591Z,0.00
2024-04-17T03:29:23.939Z,0.00
2024-04-17T03:30:23.475Z,0.00
2024-04-17T03:31:23.501Z,0.00
2024-04-17T03:32:23.535Z,0.00
2024-04-17T03:33:23.541Z,0.00
2024-04-17T03:34:23.493Z,0.00
2024-04-17T03:35:23.516Z,0.00
2024-04-17T03:36:23.471Z,0.00
2024-04-17T03:37:23.435Z,0.00
2024-04-17T03:38:23.448Z,0.00
2024-04-17T03:39:23.393Z,0.00
2024-04-17T03:40:23.467Z,0.00
2024-04-17T03:41:23.366Z,0.00
2024-04-17T03:42:23.871Z,0.00
2024-04-17T03:43:23.453Z,0.00
2024-04-17T03:44:23.327Z,0.00
2024-04-17T03:45:23.328Z,0.00
2024-04-17T03:46:23.367Z,0.00
2024-04-17T03:47:23.282Z,1.00
2024-04-17T03:48:23.315Z,0.00
2024-04-17T03:49:23.324Z,0.00
2024-04-17T03:50:23.266Z,0.00
2024-04-17T03:51:23.521Z,1.00
2024-04-17T03:52:23.235Z,1.00
2024-04-17T03:53:23.253Z,0.00
2024-04-17T03:54:23.224Z,0.00
2024-04-17T03:55:23.268Z,0.00
2024-04-17T03:56:23.233Z,0.00
2024-04-17T03:57:23.198Z,0.00
2024-04-17T03:58:23.220Z,7.00
2024-04-17T03:59:23.132Z,5.00
2024-04-17T04:00:23.107Z,1.00
2024-04-17T04:01:23.167Z,3.00
2024-04-17T04:02:23.101Z,4.00
2024-04-17T04:03:23.211Z,5.00
2024-04-17T04:04:23.135Z,3.00
2024-04-17T04:05:23.103Z,3.00
2024-04-17T04:06:23.071Z,6.00
2024-04-17T04:07:23.080Z,4.00
2024-04-17T04:08:23.033Z,3.00
2024-04-17T04:09:23.026Z,1.00
2024-04-17T04:10:23.048Z,1.00
2024-04-17T04:11:23.022Z,1.00
2024-04-17T04:12:22.986Z,1.00
2024-04-17T04:13:23.006Z,2.00
2024-04-17T04:14:22.972Z,2.00
2024-04-17T04:15:22.984Z,5.00
2024-04-17T04:16:22.991Z,3.00
2024-04-17T04:17:22.989Z,5.00
2024-04-17T04:18:23.125Z,4.00
2024-04-17T04:19:22.954Z,5.00
2024-04-17T04:20:22.925Z,8.00
2024-04-17T04:21:22.930Z,10.00
2024-04-17T04:22:22.896Z,12.00
2024-04-17T04:23:22.894Z,11.00
2024-04-17T04:24:22.903Z,14.00
2024-04-17T04:25:22.867Z,18.00
2024-04-17T04:26:22.852Z,15.00
2024-04-17T04:27:22.840Z,20.00
2024-04-17T04:28:22.842Z,21.00
2024-04-17T04:29:22.832Z,27.00
2024-04-17T04:30:23.986Z,26.00
2024-04-17T04:31:22.804Z,26.00
2024-04-17T04:32:22.795Z,27.00
2024-04-17T04:33:22.861Z,30.00
2024-04-17T04:34:22.812Z,34.00
2024-04-17T04:35:22.757Z,43.00
2024-04-17T04:36:22.756Z,44.00
2024-04-17T04:37:22.756Z,48.00
2024-04-17T04:38:22.760Z,48.00
2024-04-17T04:39:22.718Z,49.00
2024-04-17T04:40:25.136Z,50.00
2024-04-17T04:41:22.700Z,53.00
2024-04-17T04:42:22.682Z,55.00
2024-04-17T04:43:22.712Z,49.00
2024-04-17T04:44:22.673Z,54.00
2024-04-17T04:45:22.660Z,63.00
2024-04-17T04:46:22.651Z,66.00
2024-04-17T04:47:22.675Z,72.00
2024-04-17T04:48:22.663Z,78.00
2024-04-17T04:49:22.643Z,78.00
2024-04-17T04:50:22.597Z,78.00
2024-04-17T04:51:22.607Z,81.00
2024-04-17T04:52:22.616Z,70.00
2024-04-17T04:53:22.590Z,48.00
2024-04-17T04:54:22.553Z,61.00
2024-04-17T04:55:22.575Z,124.00
2024-04-17T04:56:22.539Z,184.00
2024-04-17T04:57:22.843Z,154.00
2024-04-17T04:58:22.554Z,116.00
2024-04-17T04:59:22.510Z,96.00
2024-04-17T05:00:22.513Z,88.00
2024-04-17T05:01:22.582Z,139.00
2024-04-17T05:02:22.541Z,189.00
2024-04-17T05:03:22.496Z,207.00
2024-04-17T05:04:22.577Z,219.00
2024-04-17T05:05:22.491Z,158.00
2024-04-17T05:06:22.459Z,361.00
2024-04-17T05:07:22.457Z,372.00
2024-04-17T05:08:22.414Z,345.00
2024-04-17T05:09:22.417Z,414.00
2024-04-17T05:10:22.452Z,412.00
2024-04-17T05:11:22.425Z,408.00
2024-04-17T05:12:22.427Z,405.00
2024-04-17T05:13:22.392Z,315.00
2024-04-17T05:14:22.357Z,233.00
2024-04-17T05:15:22.363Z,230.00
2024-04-17T05:16:22.363Z,296.00
2024-04-17T05:17:22.375Z,482.00
2024-04-17T05:18:22.408Z,834.00
2024-04-17T05:19:22.362Z,1042.00
2024-04-17T05:20:22.315Z,1059.00
2024-04-17T05:21:22.306Z,697.00
2024-04-17T05:22:22.312Z,639.00
2024-04-17T05:23:22.282Z,523.00
2024-04-17T05:24:22.254Z,405.00
2024-04-17T05:25:22.335Z,286.00
2024-04-17T05:26:22.248Z,459.00
2024-04-17T05:27:22.222Z,535.00
2024-04-17T05:28:22.324Z,577.00
2024-04-17T05:29:22.224Z,569.00
2024-04-17T05:30:22.210Z,395.00
2024-04-17T05:31:22.262Z,387.00
2024-04-17T05:32:22.191Z,674.00
2024-04-17T05:33:22.277Z,934.00
2024-04-17T05:34:22.500Z,944.00
2024-04-17T05:35:22.271Z,1103.00
2024-04-17T05:36:22.140Z,1267.00
2024-04-17T05:37:22.183Z,1158.00
2024-04-17T05:38:22.108Z,974.00
2024-04-17T05:39:22.136Z,1089.00
2024-04-17T05:40:22.085Z,1439.00
2024-04-17T05:41:22.082Z,1536.00
2024-04-17T05:42:22.056Z,1364.00
2024-04-17T05:43:22.176Z,2480.00
2024-04-17T05:44:22.142Z,1547.00
2024-04-17T05:45:22.042Z,1538.00
2024-04-17T05:46:22.085Z,1726.00
2024-04-17T05:47:22.063Z,1697.00
2024-04-17T05:48:22.184Z,1856.00
2024-04-17T05:49:22.045Z,1499.00
2024-04-17T05:50:22.054Z,1760.00
2024-04-17T05:51:21.981Z,1531.00
2024-04-17T05:52:21.983Z,1729.00
2024-04-17T05:53:22.103Z,1664.00
2024-04-17T05:54:21.942Z,1741.00
2024-04-17T05:55:22.026Z,1491.00
2024-04-17T05:56:21.937Z,1920.00
2024-04-17T05:57:21.914Z,1536.00
2024-04-17T05:58:21.933Z,1618.00
2024-04-17T05:59:21.913Z,1626.00
2024-04-17T06:00:21.937Z,1926.00
2024-04-17T06:01:21.897Z,2034.00
2024-04-17T06:02:21.909Z,1774.00
2024-04-17T06:03:21.942Z,959.00
2024-04-17T06:04:21.877Z,2370.00
2024-04-17T06:05:21.849Z,1549.00
2024-04-17T06:06:21.819Z,1856.00
2024-04-17T06:07:21.852Z,1759.00
2024-04-17T06:08:21.799Z,2444.00
2024-04-17T06:09:21.792Z,2755.00
2024-04-17T06:10:21.782Z,1760.00
2024-04-17T06:11:21.897Z,2800.00
2024-04-17T06:12:22.012Z,2569.00
2024-04-17T06:13:21.779Z,2008.00
2024-04-17T06:14:21.741Z,2396.00
2024-04-17T06:15:21.738Z,1343.00
2024-04-17T06:16:22.394Z,1538.00
2024-04-17T06:17:21.739Z,2091.00
2024-04-17T06:18:21.719Z,1865.00
2024-04-17T06:19:21.715Z,1727.00
2024-04-17T06:20:21.686Z,2891.00
2024-04-17T06:21:21.692Z,3240.00
2024-04-17T06:22:22.085Z,2913.00
2024-04-17T06:23:21.640Z,2491.00
2024-04-17T06:24:21.630Z,3032.00
2024-04-17T06:25:21.633Z,4030.00
2024-04-17T06:26:21.646Z,3909.00
2024-04-17T06:27:21.680Z,2702.00
2024-04-17T06:28:21.891Z,1549.00
2024-04-17T06:29:21.588Z,1787.00
2024-04-17T06:30:21.603Z,2607.00
2024-04-17T06:31:21.596Z,1798.00
2024-04-17T06:32:21.650Z,943.00
2024-04-17T06:33:21.634Z,2169.00
2024-04-17T06:34:21.549Z,2726.00
2024-04-17T06:35:21.564Z,2105.00
2024-04-17T06:36:21.539Z,2907.00
2024-04-17T06:37:21.551Z,2431.00
2024-04-17T06:38:21.511Z,2707.00
2024-04-17T06:39:21.561Z,3729.00
2024-04-17T06:40:21.599Z,2290.00
2024-04-17T06:41:21.477Z,2773.00
2024-04-17T06:42:21.451Z,2669.00
2024-04-17T06:43:21.433Z,1318.00
2024-04-17T06:44:21.463Z,5433.00
2024-04-17T06:45:21.446Z,4229.00
2024-04-17T06:46:21.413Z,2086.00
2024-04-17T06:47:21.612Z,1284.00
2024-04-17T06:48:23.415Z,1039.00
2024-04-17T06:49:21.455Z,1177.00
2024-04-17T06:50:21.364Z,1525.00
2024-04-17T06:51:21.366Z,1344.00
2024-04-17T06:52:21.352Z,997.00
2024-04-17T06:53:21.354Z,859.00
2024-04-17T06:54:22.166Z,1351.00
2024-04-17T06:55:21.339Z,1085.00
2024-04-17T06:56:21.321Z,1016.00
2024-04-17T06:57:21.289Z,1011.00
2024-04-17T06:58:21.469Z,857.00
2024-04-17T06:59:21.325Z,1529.00
2024-04-17T07:00:21.274Z,1327.00
2024-04-17T07:01:21.304Z,1438.00
2024-04-17T07:02:21.311Z,1451.00
2024-04-17T07:03:21.409Z,827.00
2024-04-17T07:04:21.235Z,788.00
2024-04-17T07:05:21.207Z,1052.00
2024-04-17T07:06:21.203Z,780.00
2024-04-17T07:07:21.228Z,827.00
2024-04-17T07:08:21.217Z,1299.00
2024-04-17T07:09:21.169Z,1576.00
2024-04-17T07:10:21.209Z,1280.00
2024-04-17T07:11:21.223Z,864.00
2024-04-17T07:12:21.224Z,602.00
2024-04-17T07:13:21.226Z,619.00
2024-04-17T07:14:21.131Z,608.00
2024-04-17T07:15:21.144Z,802.00
2024-04-17T07:16:21.106Z,952.00
2024-04-17T07:17:21.110Z,886.00
2024-04-17T07:18:21.153Z,996.00
2024-04-17T07:19:21.088Z,1054.00
2024-04-17T07:20:21.117Z,736.00
2024-04-17T07:21:21.051Z,499.00
2024-04-17T07:22:21.078Z,739.00
2024-04-17T07:23:21.052Z,721.00
2024-04-17T07:24:21.032Z,2265.00
2024-04-17T07:25:21.043Z,1972.00
2024-04-17T07:26:21.214Z,1165.00
2024-04-17T07:27:21.049Z,5934.00
2024-04-17T07:28:21.001Z,2000.00
2024-04-17T07:29:20.962Z,1089.00
2024-04-17T07:30:20.968Z,1778.00
2024-04-17T07:31:20.995Z,14565.00
2024-04-17T07:32:21.085Z,19690.00
2024-04-17T07:33:20.945Z,9422.00
2024-04-17T07:34:20.923Z,5190.00
2024-04-17T07:35:20.968Z,3317.00
2024-04-17T07:36:20.917Z,2780.00
2024-04-17T07:37:20.893Z,2273.00
2024-04-17T07:38:20.878Z,1613.00
2024-04-17T07:39:20.925Z,888.00
2024-04-17T07:40:20.895Z,1336.00
2024-04-17T07:41:20.876Z,1705.00
2024-04-17T07:42:20.840Z,1173.00
2024-04-17T07:43:20.821Z,1970.00
2024-04-17T07:44:20.821Z,1305.00
2024-04-17T07:45:20.830Z,6784.00
2024-04-17T07:46:20.830Z,2667.00
2024-04-17T07:47:20.844Z,2043.00
2024-04-17T07:48:20.935Z,10828.00
2024-04-17T07:49:20.803Z,2877.00
2024-04-17T07:50:20.778Z,10615.00
2024-04-17T07:51:20.766Z,4850.00
2024-04-17T07:52:20.758Z,2583.00
2024-04-17T07:53:20.795Z,1819.00
2024-04-17T07:54:20.748Z,2799.00
2024-04-17T07:55:20.756Z,3091.00
2024-04-17T07:56:20.696Z,2642.00
2024-04-17T07:57:20.712Z,7376.00
2024-04-17T07:58:20.680Z,3676.00
2024-04-17T07:59:20.707Z,3475.00
2024-04-17T08:00:21.511Z,3874.00
2024-04-17T08:01:20.704Z,5757.00
2024-04-17T08:02:20.646Z,5353.00
2024-04-17T08:03:20.678Z,6716.00
2024-04-17T08:04:20.728Z,8113.00
2024-04-17T08:05:20.603Z,5545.00
2024-04-17T08:06:20.595Z,3154.00
2024-04-17T08:07:20.576Z,4935.00
2024-04-17T08:08:20.619Z,3255.00
2024-04-17T08:09:20.550Z,2469.00
2024-04-17T08:10:20.555Z,3882.00
2024-04-17T08:11:21.311Z,3346.00
2024-04-17T08:12:20.564Z,5187.00
2024-04-17T08:13:20.603Z,3783.00
2024-04-17T08:14:20.558Z,8245.00
2024-04-17T08:15:20.491Z,15024.00
2024-04-17T08:16:20.485Z,13651.00
2024-04-17T08:17:20.746Z,5985.00
2024-04-17T08:18:20.557Z,10627.00
2024-04-17T08:19:20.551Z,58023.00
2024-04-17T08:20:20.590Z,77334.00
2024-04-17T08:21:20.440Z,62282.00
2024-04-17T08:22:20.703Z,11766.00
2024-04-17T08:23:20.406Z,14516.00
2024-04-17T08:24:20.412Z,5549.00
2024-04-17T08:25:20.383Z,5063.00
2024-04-17T08:26:20.384Z,7252.00
2024-04-17T08:27:20.382Z,6647.00
2024-04-17T08:28:20.417Z,5266.00
2024-04-17T08:29:20.493Z,4212.00
2024-04-17T08:30:20.347Z,6193.00
2024-04-17T08:31:20.341Z,4883.00
2024-04-17T08:32:20.394Z,83694.00
2024-04-17T08:33:20.434Z,69913.00
2024-04-17T08:34:20.295Z,13645.00
2024-04-17T08:35:20.288Z,79994.00
2024-04-17T08:36:20.395Z,80439.00
2024-04-17T08:37:20.287Z,80132.00
2024-04-17T08:38:20.333Z,80649.00
2024-04-17T08:39:20.245Z,78860.00
2024-04-17T08:40:20.234Z,59048.00
2024-04-17T08:41:20.231Z,3064.00
2024-04-17T08:42:20.226Z,15513.00
2024-04-17T08:43:20.228Z,5073.00
2024-04-17T08:44:20.226Z,3608.00
2024-04-17T08:45:23.667Z,79267.00
2024-04-17T08:46:20.190Z,76799.00
2024-04-17T08:47:20.317Z,78782.00
2024-04-17T08:48:20.263Z,78561.00
2024-04-17T08:49:20.139Z,77871.00
2024-04-17T08:50:20.161Z,78261.00
2024-04-17T08:51:20.120Z,79388.00
2024-04-17T08:52:20.113Z,79698.00
2024-04-17T08:53:20.090Z,79677.00
2024-04-17T08:54:20.082Z,77134.00
2024-04-17T08:55:20.152Z,77886.00
2024-04-17T08:56:20.084Z,76612.00
2024-04-17T08:57:20.045Z,79360.00
2024-04-17T08:58:20.064Z,80516.00
2024-04-17T08:59:20.063Z,76839.00
2024-04-17T09:00:20.484Z,77439.00
2024-04-17T09:01:20.172Z,77323.00
2024-04-17T09:02:20.051Z,78207.00
2024-04-17T09:03:19.987Z,75206.00
2024-04-17T09:04:20.083Z,75094.00
2024-04-17T09:05:19.974Z,75658.00
2024-04-17T09:06:19.989Z,75537.00
2024-04-17T09:07:19.960Z,74935.00
2024-04-17T09:08:19.993Z,73915.00
2024-04-17T09:09:20.510Z,76186.00
2024-04-17T09:10:20.034Z,75445.00
2024-04-17T09:11:20.036Z,74017.00
2024-04-17T09:12:19.902Z,73549.00
2024-04-17T09:13:19.934Z,73614.00
2024-04-17T09:14:19.887Z,72836.00
2024-04-17T09:15:19.966Z,26029.00
2024-04-17T09:16:19.862Z,32187.00
2024-04-17T09:17:19.923Z,13188.00
2024-04-17T09:18:20.017Z,28537.00
2024-04-17T09:19:19.837Z,20906.00
2024-04-17T09:20:19.806Z,23279.00
2024-04-17T09:21:19.785Z,24398.00
2024-04-17T09:22:19.830Z,20763.00
2024-04-17T09:23:20.164Z,13996.00
2024-04-17T09:24:19.781Z,17338.00
2024-04-17T09:25:19.811Z,18560.00
2024-04-17T09:26:19.768Z,20547.00
2024-04-17T09:27:20.053Z,15814.00
2024-04-17T09:28:19.767Z,15524.00
2024-04-17T09:29:19.727Z,13671.00
2024-04-17T09:30:19.729Z,15737.00
2024-04-17T09:31:19.775Z,18030.00
2024-04-17T09:32:19.791Z,16879.00
2024-04-17T09:33:19.794Z,14268.00
2024-04-17T09:34:19.672Z,4418.00
2024-04-17T09:35:19.661Z,11120.00
2024-04-17T09:36:19.645Z,5515.00
2024-04-17T09:37:19.657Z,8006.00
2024-04-17T09:38:19.632Z,9241.00
2024-04-17T09:39:19.606Z,8385.00
2024-04-17T09:40:19.616Z,7852.00
2024-04-17T09:41:19.583Z,7005.00
2024-04-17T09:42:19.592Z,7438.00
2024-04-17T09:43:22.600Z,7325.00
2024-04-17T09:44:19.565Z,7215.00
2024-04-17T09:45:19.595Z,6202.00
2024-04-17T09:46:19.589Z,6373.00
2024-04-17T09:47:19.641Z,6592.00
2024-04-17T09:48:19.518Z,6823.00
2024-04-17T09:49:19.504Z,6622.00
2024-04-17T09:50:19.581Z,6800.00
2024-04-17T09:51:19.501Z,6583.00
2024-04-17T09:52:19.507Z,5646.00
2024-04-17T09:53:28.070Z,6412.00
2024-04-17T09:54:19.475Z,5718.00
2024-04-17T09:55:19.473Z,5401.00
2024-04-17T09:56:19.476Z,4876.00
2024-04-17T09:57:19.432Z,5923.00
2024-04-17T09:58:19.456Z,6475.00
2024-04-17T09:59:19.513Z,6727.00
2024-04-17T10:00:19.512Z,5724.00
2024-04-17T10:01:19.612Z,5416.00
2024-04-17T10:02:19.478Z,5357.00
2024-04-17T10:03:19.396Z,5667.00
2024-04-17T10:04:20.311Z,5263.00
2024-04-17T10:05:19.693Z,5847.00
2024-04-17T10:06:19.337Z,4759.00
2024-04-17T10:07:19.307Z,5505.00
2024-04-17T10:08:19.376Z,4939.00
2024-04-17T10:09:19.300Z,5247.00
2024-04-17T10:10:19.316Z,5405.00
2024-04-17T10:11:19.304Z,5760.00
2024-04-17T10:12:19.268Z,5532.00
2024-04-17T10:13:19.343Z,5096.00
2024-04-17T10:14:19.283Z,4832.00
2024-04-17T10:15:19.368Z,4659.00
2024-04-17T10:16:19.276Z,5049.00
2024-04-17T10:17:30.102Z,5146.00
2024-04-17T10:18:19.462Z,4391.00
2024-04-17T10:19:19.205Z,4607.00
2024-04-17T10:20:19.202Z,4359.00
2024-04-17T10:21:19.180Z,4223.00
2024-04-17T10:22:19.164Z,4401.00
2024-04-17T10:23:19.135Z,3898.00
2024-04-17T10:24:19.170Z,3898.00
2024-04-17T10:25:27.421Z,4313.00
2024-04-17T10:26:19.206Z,4237.00
2024-04-17T10:27:19.096Z,3931.00
2024-04-17T10:28:19.139Z,3289.00
2024-04-17T10:29:19.103Z,3753.00
2024-04-17T10:30:19.088Z,3763.00
2024-04-17T10:31:19.086Z,3902.00
2024-04-17T10:32:19.082Z,3717.00
2024-04-17T10:33:19.207Z,3292.00
2024-04-17T10:34:19.163Z,3893.00
2024-04-17T10:35:19.058Z,3461.00
2024-04-17T10:36:19.020Z,3158.00
2024-04-17T10:37:19.084Z,3612.00
2024-04-17T10:38:28.762Z,3162.00
2024-04-17T10:39:18.982Z,3495.00
2024-04-17T10:40:18.981Z,3186.00
2024-04-17T10:41:18.968Z,3662.00
2024-04-17T10:42:19.081Z,3701.00
2024-04-17T10:43:18.958Z,3180.00
2024-04-17T10:44:19.031Z,3416.00
2024-04-17T10:45:18.983Z,3196.00
2024-04-17T10:46:18.932Z,3097.00
2024-04-17T10:47:18.932Z,3202.00
2024-04-17T10:48:19.074Z,3047.00
2024-04-17T10:49:18.911Z,2814.00
2024-04-17T10:50:18.944Z,2737.00
2024-04-17T10:51:18.916Z,2362.00
2024-04-17T10:52:18.863Z,2532.00
2024-04-17T10:53:18.843Z,2778.00
2024-04-17T10:54:18.825Z,2956.00
2024-04-17T10:55:18.824Z,3014.00
2024-04-17T10:56:19.105Z,3251.00
2024-04-17T10:57:18.816Z,2682.00
2024-04-17T10:58:18.788Z,2540.00
2024-04-17T10:59:18.814Z,2452.00
2024-04-17T11:00:18.764Z,2777.00
2024-04-17T11:01:18.779Z,2684.00
2024-04-17T11:02:18.780Z,2490.00
2024-04-17T11:03:18.784Z,2649.00
2024-04-17T11:04:18.891Z,2531.00
2024-04-17T11:05:18.913Z,2575.00
2024-04-17T11:06:18.709Z,7947.00
2024-04-17T11:07:18.686Z,3023.00
2024-04-17T11:08:18.692Z,2464.00
2024-04-17T11:09:18.729Z,1258.00
2024-04-17T11:10:18.656Z,4855.00
2024-04-17T11:11:22.903Z,2674.00
2024-04-17T11:12:18.657Z,2595.00
2024-04-17T11:13:18.626Z,2360.00
2024-04-17T11:14:18.605Z,1465.00
2024-04-17T11:15:18.656Z,2898.00
2024-04-17T11:16:18.958Z,2335.00
2024-04-17T11:17:18.839Z,3091.00
2024-04-17T11:18:18.663Z,7399.00
2024-04-17T11:19:18.639Z,2638.00
2024-04-17T11:20:18.611Z,2369.00
2024-04-17T11:21:18.536Z,2368.00
2024-04-17T11:22:18.532Z,2477.00
2024-04-17T11:23:18.525Z,2431.00
2024-04-17T11:24:18.516Z,2640.00
2024-04-17T11:25:18.537Z,2564.00
2024-04-17T11:26:18.494Z,2477.00
2024-04-17T11:27:18.504Z,1556.00
2024-04-17T11:28:18.461Z,3304.00
2024-04-17T11:29:26.551Z,3052.00
2024-04-17T11:30:18.471Z,2989.00
2024-04-17T11:31:18.444Z,2679.00
2024-04-17T11:32:18.951Z,3386.00
2024-04-17T11:33:18.492Z,3061.00
2024-04-17T11:34:20.629Z,2801.00
2024-04-17T11:35:18.441Z,3127.00
2024-04-17T11:36:18.378Z,2740.00
2024-04-17T11:37:18.373Z,2905.00
2024-04-17T11:38:18.355Z,3149.00
2024-04-17T11:39:18.391Z,4341.00
2024-04-17T11:40:18.705Z,3540.00
2024-04-17T11:41:18.520Z,3216.00
2024-04-17T11:42:18.306Z,3149.00
2024-04-17T11:43:18.325Z,3512.00
2024-04-17T11:44:18.318Z,3152.00
2024-04-17T11:45:18.312Z,3712.00
2024-04-17T11:46:18.297Z,3848.00
2024-04-17T11:47:18.297Z,3447.00
2024-04-17T11:48:18.304Z,2836.00
2024-04-17T11:49:18.351Z,3169.00
2024-04-17T11:50:18.224Z,4007.00
2024-04-17T11:51:18.225Z,3950.00
2024-04-17T11:52:18.221Z,3360.00
2024-04-17T11:53:18.218Z,3251.00
2024-04-17T11:54:18.207Z,2937.00
2024-04-17T11:55:18.183Z,9240.00
2024-04-17T11:56:18.166Z,3733.00
2024-04-17T11:57:18.516Z,2538.00
2024-04-17T11:58:18.172Z,1212.00
2024-04-17T11:59:18.138Z,1895.00
2024-04-17T12:00:18.119Z,6944.00
2024-04-17T12:01:18.114Z,2323.00
2024-04-17T12:02:18.330Z,6668.00
2024-04-17T12:03:18.162Z,2027.00
2024-04-17T12:04:18.202Z,2929.00
2024-04-17T12:05:18.177Z,2744.00
2024-04-17T12:06:18.064Z,2759.00
2024-04-17T12:07:18.098Z,2747.00
2024-04-17T12:08:18.046Z,2729.00
2024-04-17T12:09:18.032Z,2712.00
2024-04-17T12:10:18.030Z,2552.00
2024-04-17T12:11:18.206Z,2593.00
2024-04-17T12:12:18.081Z,2729.00
2024-04-17T12:13:17.994Z,2546.00
2024-04-17T12:14:17.969Z,2701.00
2024-04-17T12:15:18.035Z,2515.00
2024-04-17T12:16:18.014Z,2540.00
2024-04-17T12:17:18.083Z,2577.00
2024-04-17T12:18:17.992Z,2734.00
2024-04-17T12:19:17.932Z,2827.00
2024-04-17T12:20:17.910Z,3274.00
2024-04-17T12:21:17.933Z,7729.00
2024-04-17T12:22:17.892Z,2246.00
2024-04-17T12:23:17.882Z,2594.00
2024-04-17T12:24:17.888Z,3820.00
2024-04-17T12:25:17.883Z,2027.00
2024-04-17T12:26:17.868Z,2198.00
2024-04-17T12:27:17.855Z,1963.00
2024-04-17T12:28:17.829Z,2091.00
2024-04-17T12:29:17.824Z,2043.00
2024-04-17T12:30:17.826Z,1788.00
2024-04-17T12:31:17.813Z,1825.00